sensor_id;sensor_type;location;lat;lon;timestamp;P1;durP1;ratioP1;P2;durP2;ratioP2
7381;SDS011;3732;48.052;7.800;2022-08-21T00:00:06;4.00;;;2.10;;
7381;SDS011;3732;48.052;7.800;2022-08-21T00:02:34;2.80;;;1.90;;
7381;SDS011;3732;48.052;7.800;2022-08-21T00:05:02;2.20;;;2.00;;
7381;SDS011;3732;48.052;7.800;2022-08-21T00:07:29;2.23;;;1.93;;
7381;SDS011;3732;48.052;7.800;2022-08-21T00:09:56;3.70;;;2.00;;
7381;SDS011;3732;48.052;7.800;2022-08-21T00:12:25;5.97;;;2.30;;
7381;SDS011;3732;48.052;7.800;2022-08-21T00:14:53;2.33;;;2.00;;
7381;SDS011;3732;48.052;7.800;2022-08-21T00:17:20;3.73;;;2.23;;
7381;SDS011;3732;48.052;7.800;2022-08-21T00:19:47;2.23;;;2.00;;
7381;SDS011;3732;48.052;7.800;2022-08-21T00:22:15;2.50;;;2.17;;
7381;SDS011;3732;48.052;7.800;2022-08-21T00:24:42;3.33;;;2.00;;
7381;SDS011;3732;48.052;7.800;2022-08-21T00:27:09;5.47;;;2.10;;
7381;SDS011;3732;48.052;7.800;2022-08-21T00:29:38;3.93;;;1.90;;
7381;SDS011;3732;48.052;7.800;2022-08-21T00:32:05;2.67;;;1.93;;
7381;SDS011;3732;48.052;7.800;2022-08-21T00:34:32;3.93;;;2.10;;
7381;SDS011;3732;48.052;7.800;2022-08-21T00:37:00;3.70;;;1.90;;
7381;SDS011;3732;48.052;7.800;2022-08-21T00:39:27;2.17;;;1.87;;
7381;SDS011;3732;48.052;7.800;2022-08-21T00:41:54;3.00;;;1.80;;
7381;SDS011;3732;48.052;7.800;2022-08-21T00:44:21;1.80;;;1.70;;
7381;SDS011;3732;48.052;7.800;2022-08-21T00:46:50;2.07;;;1.90;;
7381;SDS011;3732;48.052;7.800;2022-08-21T00:49:17;3.60;;;2.13;;
7381;SDS011;3732;48.052;7.800;2022-08-21T00:51:46;3.13;;;1.90;;
7381;SDS011;3732;48.052;7.800;2022-08-21T00:54:14;2.10;;;1.90;;
7381;SDS011;3732;48.052;7.800;2022-08-21T00:56:42;1.90;;;1.70;;
7381;SDS011;3732;48.052;7.800;2022-08-21T00:59:10;4.23;;;1.90;;
7381;SDS011;3732;48.052;7.800;2022-08-21T01:01:37;2.17;;;1.90;;
7381;SDS011;3732;48.052;7.800;2022-08-21T01:04:06;4.70;;;1.90;;
7381;SDS011;3732;48.052;7.800;2022-08-21T01:06:33;3.73;;;2.00;;
7381;SDS011;3732;48.052;7.800;2022-08-21T01:09:00;2.43;;;1.97;;
7381;SDS011;3732;48.052;7.800;2022-08-21T01:11:28;4.10;;;1.67;;
7381;SDS011;3732;48.052;7.800;2022-08-21T01:13:55;3.37;;;2.00;;
7381;SDS011;3732;48.052;7.800;2022-08-21T01:16:23;3.53;;;2.00;;
7381;SDS011;3732;48.052;7.800;2022-08-21T01:18:50;2.67;;;1.80;;
7381;SDS011;3732;48.052;7.800;2022-08-21T01:21:20;1.93;;;1.80;;
7381;SDS011;3732;48.052;7.800;2022-08-21T01:23:48;2.00;;;1.80;;
7381;SDS011;3732;48.052;7.800;2022-08-21T01:26:17;3.27;;;1.83;;
7381;SDS011;3732;48.052;7.800;2022-08-21T01:28:46;3.63;;;2.03;;
7381;SDS011;3732;48.052;7.800;2022-08-21T01:31:15;1.80;;;1.70;;
7381;SDS011;3732;48.052;7.800;2022-08-21T01:33:44;3.17;;;2.00;;
7381;SDS011;3732;48.052;7.800;2022-08-21T01:36:11;2.50;;;1.90;;
7381;SDS011;3732;48.052;7.800;2022-08-21T01:38:40;4.87;;;2.07;;
7381;SDS011;3732;48.052;7.800;2022-08-21T01:41:07;2.47;;;2.27;;
7381;SDS011;3732;48.052;7.800;2022-08-21T01:43:34;2.50;;;2.30;;
7381;SDS011;3732;48.052;7.800;2022-08-21T01:46:02;2.57;;;2.37;;
7381;SDS011;3732;48.052;7.800;2022-08-21T01:48:29;4.17;;;2.60;;
7381;SDS011;3732;48.052;7.800;2022-08-21T01:50:56;4.90;;;2.70;;
7381;SDS011;3732;48.052;7.800;2022-08-21T01:53:23;3.40;;;2.77;;
7381;SDS011;3732;48.052;7.800;2022-08-21T01:55:52;2.60;;;2.30;;
7381;SDS011;3732;48.052;7.800;2022-08-21T01:58:19;3.37;;;2.90;;
7381;SDS011;3732;48.052;7.800;2022-08-21T02:00:47;4.07;;;2.40;;
7381;SDS011;3732;48.052;7.800;2022-08-21T02:03:14;3.00;;;2.63;;
7381;SDS011;3732;48.052;7.800;2022-08-21T02:05:41;6.97;;;2.40;;
7381;SDS011;3732;48.052;7.800;2022-08-21T02:08:08;6.03;;;3.30;;
7381;SDS011;3732;48.052;7.800;2022-08-21T02:10:36;1.70;;;1.60;;
7381;SDS011;3732;48.052;7.800;2022-08-21T02:13:04;3.70;;;1.93;;
7381;SDS011;3732;48.052;7.800;2022-08-21T02:15:32;2.37;;;1.60;;
7381;SDS011;3732;48.052;7.800;2022-08-21T02:18:00;2.40;;;1.53;;
7381;SDS011;3732;48.052;7.800;2022-08-21T02:20:29;2.87;;;1.70;;
7381;SDS011;3732;48.052;7.800;2022-08-21T02:22:56;1.60;;;1.50;;
7381;SDS011;3732;48.052;7.800;2022-08-21T02:25:24;3.63;;;1.77;;
7381;SDS011;3732;48.052;7.800;2022-08-21T02:27:52;2.27;;;2.03;;
7381;SDS011;3732;48.052;7.800;2022-08-21T02:30:21;2.30;;;1.90;;
7381;SDS011;3732;48.052;7.800;2022-08-21T02:32:49;1.93;;;1.67;;
7381;SDS011;3732;48.052;7.800;2022-08-21T02:35:16;2.13;;;1.93;;
7381;SDS011;3732;48.052;7.800;2022-08-21T02:37:45;5.00;;;2.30;;
7381;SDS011;3732;48.052;7.800;2022-08-21T02:40:12;2.10;;;1.87;;
7381;SDS011;3732;48.052;7.800;2022-08-21T02:42:40;3.37;;;2.10;;
7381;SDS011;3732;48.052;7.800;2022-08-21T02:45:09;2.03;;;1.60;;
7381;SDS011;3732;48.052;7.800;2022-08-21T02:47:38;2.10;;;1.90;;
7381;SDS011;3732;48.052;7.800;2022-08-21T02:50:06;3.57;;;1.87;;
7381;SDS011;3732;48.052;7.800;2022-08-21T02:52:34;2.87;;;1.70;;
7381;SDS011;3732;48.052;7.800;2022-08-21T02:55:02;2.80;;;2.00;;
7381;SDS011;3732;48.052;7.800;2022-08-21T02:57:29;2.80;;;1.73;;
7381;SDS011;3732;48.052;7.800;2022-08-21T02:59:57;4.23;;;2.03;;
7381;SDS011;3732;48.052;7.800;2022-08-21T03:02:25;2.37;;;1.97;;
7381;SDS011;3732;48.052;7.800;2022-08-21T03:04:53;4.33;;;1.90;;
7381;SDS011;3732;48.052;7.800;2022-08-21T03:07:20;4.97;;;1.87;;
7381;SDS011;3732;48.052;7.800;2022-08-21T03:09:48;3.73;;;1.90;;
7381;SDS011;3732;48.052;7.800;2022-08-21T03:12:15;2.93;;;1.80;;
7381;SDS011;3732;48.052;7.800;2022-08-21T03:14:42;2.27;;;2.07;;
7381;SDS011;3732;48.052;7.800;2022-08-21T03:17:09;3.43;;;2.00;;
7381;SDS011;3732;48.052;7.800;2022-08-21T03:19:36;2.97;;;2.23;;
7381;SDS011;3732;48.052;7.800;2022-08-21T03:22:05;3.40;;;1.80;;
7381;SDS011;3732;48.052;7.800;2022-08-21T03:24:33;5.27;;;1.80;;
7381;SDS011;3732;48.052;7.800;2022-08-21T03:27:00;2.77;;;1.83;;
7381;SDS011;3732;48.052;7.800;2022-08-21T03:29:27;3.37;;;1.90;;
7381;SDS011;3732;48.052;7.800;2022-08-21T03:31:54;5.50;;;1.80;;
7381;SDS011;3732;48.052;7.800;2022-08-21T03:34:22;5.13;;;2.10;;
7381;SDS011;3732;48.052;7.800;2022-08-21T03:36:49;6.83;;;2.20;;
7381;SDS011;3732;48.052;7.800;2022-08-21T03:39:18;5.73;;;2.20;;
7381;SDS011;3732;48.052;7.800;2022-08-21T03:41:45;3.20;;;2.03;;
7381;SDS011;3732;48.052;7.800;2022-08-21T03:44:13;4.20;;;1.97;;
7381;SDS011;3732;48.052;7.800;2022-08-21T03:46:40;2.93;;;1.87;;
7381;SDS011;3732;48.052;7.800;2022-08-21T03:49:07;2.97;;;2.10;;
7381;SDS011;3732;48.052;7.800;2022-08-21T03:51:34;3.97;;;2.00;;
7381;SDS011;3732;48.052;7.800;2022-08-21T03:54:02;4.73;;;2.00;;
7381;SDS011;3732;48.052;7.800;2022-08-21T03:56:30;2.40;;;2.00;;
7381;SDS011;3732;48.052;7.800;2022-08-21T03:58:58;3.03;;;2.00;;
7381;SDS011;3732;48.052;7.800;2022-08-21T04:01:27;3.03;;;1.87;;
7381;SDS011;3732;48.052;7.800;2022-08-21T04:03:54;4.10;;;2.13;;
7381;SDS011;3732;48.052;7.800;2022-08-21T04:06:21;3.57;;;2.10;;
7381;SDS011;3732;48.052;7.800;2022-08-21T04:08:48;3.23;;;2.00;;
7381;SDS011;3732;48.052;7.800;2022-08-21T04:11:16;2.23;;;2.03;;
7381;SDS011;3732;48.052;7.800;2022-08-21T04:13:45;2.10;;;2.00;;
7381;SDS011;3732;48.052;7.800;2022-08-21T04:16:13;2.60;;;2.10;;
7381;SDS011;3732;48.052;7.800;2022-08-21T04:18:40;2.87;;;2.57;;
7381;SDS011;3732;48.052;7.800;2022-08-21T04:21:08;2.47;;;2.27;;
7381;SDS011;3732;48.052;7.800;2022-08-21T04:23:37;3.03;;;2.40;;
7381;SDS011;3732;48.052;7.800;2022-08-21T04:26:04;2.97;;;2.30;;
7381;SDS011;3732;48.052;7.800;2022-08-21T04:28:31;5.47;;;2.23;;
7381;SDS011;3732;48.052;7.800;2022-08-21T04:31:00;3.60;;;2.23;;
7381;SDS011;3732;48.052;7.800;2022-08-21T04:33:27;2.70;;;2.23;;
7381;SDS011;3732;48.052;7.800;2022-08-21T04:35:55;2.00;;;1.90;;
7381;SDS011;3732;48.052;7.800;2022-08-21T04:38:22;2.40;;;2.20;;
7381;SDS011;3732;48.052;7.800;2022-08-21T04:40:49;2.97;;;2.03;;
7381;SDS011;3732;48.052;7.800;2022-08-21T04:43:17;2.27;;;2.07;;
7381;SDS011;3732;48.052;7.800;2022-08-21T04:45:46;5.10;;;2.33;;
7381;SDS011;3732;48.052;7.800;2022-08-21T04:48:16;2.20;;;2.00;;
7381;SDS011;3732;48.052;7.800;2022-08-21T04:50:45;2.63;;;2.27;;
7381;SDS011;3732;48.052;7.800;2022-08-21T04:53:14;3.53;;;2.30;;
7381;SDS011;3732;48.052;7.800;2022-08-21T04:55:42;2.53;;;2.33;;
7381;SDS011;3732;48.052;7.800;2022-08-21T04:58:11;4.37;;;2.50;;
7381;SDS011;3732;48.052;7.800;2022-08-21T05:00:39;4.87;;;2.60;;
7381;SDS011;3732;48.052;7.800;2022-08-21T05:03:07;5.00;;;2.47;;
7381;SDS011;3732;48.052;7.800;2022-08-21T05:05:36;2.80;;;2.60;;
7381;SDS011;3732;48.052;7.800;2022-08-21T05:08:04;2.60;;;2.30;;
7381;SDS011;3732;48.052;7.800;2022-08-21T05:10:33;2.40;;;2.20;;
7381;SDS011;3732;48.052;7.800;2022-08-21T05:13:00;5.87;;;2.43;;
7381;SDS011;3732;48.052;7.800;2022-08-21T05:15:28;2.80;;;2.57;;
7381;SDS011;3732;48.052;7.800;2022-08-21T05:17:56;5.73;;;2.40;;
7381;SDS011;3732;48.052;7.800;2022-08-21T05:20:23;4.37;;;2.43;;
7381;SDS011;3732;48.052;7.800;2022-08-21T05:22:51;3.07;;;2.47;;
7381;SDS011;3732;48.052;7.800;2022-08-21T05:25:19;4.00;;;2.30;;
7381;SDS011;3732;48.052;7.800;2022-08-21T05:27:46;4.13;;;2.77;;
7381;SDS011;3732;48.052;7.800;2022-08-21T05:30:13;3.20;;;2.83;;
7381;SDS011;3732;48.052;7.800;2022-08-21T05:32:40;2.93;;;2.73;;
7381;SDS011;3732;48.052;7.800;2022-08-21T05:35:07;2.83;;;2.63;;
7381;SDS011;3732;48.052;7.800;2022-08-21T05:37:35;10.77;;;2.80;;
7381;SDS011;3732;48.052;7.800;2022-08-21T05:40:04;4.80;;;3.00;;
7381;SDS011;3732;48.052;7.800;2022-08-21T05:42:32;3.97;;;3.13;;
7381;SDS011;3732;48.052;7.800;2022-08-21T05:44:59;3.77;;;3.07;;
7381;SDS011;3732;48.052;7.800;2022-08-21T05:47:26;4.23;;;3.83;;
7381;SDS011;3732;48.052;7.800;2022-08-21T05:49:54;3.40;;;3.10;;
7381;SDS011;3732;48.052;7.800;2022-08-21T05:52:21;6.73;;;3.53;;
7381;SDS011;3732;48.052;7.800;2022-08-21T05:54:48;7.67;;;3.30;;
7381;SDS011;3732;48.052;7.800;2022-08-21T05:57:20;4.73;;;3.33;;
7381;SDS011;3732;48.052;7.800;2022-08-21T05:59:47;4.90;;;3.30;;
7381;SDS011;3732;48.052;7.800;2022-08-21T06:02:16;3.27;;;2.90;;
7381;SDS011;3732;48.052;7.800;2022-08-21T06:04:43;6.67;;;2.70;;
7381;SDS011;3732;48.052;7.800;2022-08-21T06:07:11;3.33;;;2.43;;
7381;SDS011;3732;48.052;7.800;2022-08-21T06:09:38;4.53;;;2.43;;
7381;SDS011;3732;48.052;7.800;2022-08-21T06:12:05;3.77;;;2.70;;
7381;SDS011;3732;48.052;7.800;2022-08-21T06:14:34;3.27;;;2.77;;
7381;SDS011;3732;48.052;7.800;2022-08-21T06:17:02;4.20;;;2.90;;
7381;SDS011;3732;48.052;7.800;2022-08-21T06:19:29;3.53;;;2.20;;
7381;SDS011;3732;48.052;7.800;2022-08-21T06:21:57;2.80;;;1.80;;
7381;SDS011;3732;48.052;7.800;2022-08-21T06:24:24;1.90;;;1.67;;
7381;SDS011;3732;48.052;7.800;2022-08-21T06:26:52;2.87;;;1.90;;
7381;SDS011;3732;48.052;7.800;2022-08-21T06:29:19;1.70;;;1.60;;
7381;SDS011;3732;48.052;7.800;2022-08-21T06:31:48;2.27;;;1.93;;
7381;SDS011;3732;48.052;7.800;2022-08-21T06:34:16;4.30;;;1.90;;
7381;SDS011;3732;48.052;7.800;2022-08-21T06:36:44;4.37;;;1.97;;
7381;SDS011;3732;48.052;7.800;2022-08-21T06:39:11;3.13;;;1.80;;
7381;SDS011;3732;48.052;7.800;2022-08-21T06:41:39;3.50;;;1.67;;
7381;SDS011;3732;48.052;7.800;2022-08-21T06:44:10;2.10;;;1.90;;
7381;SDS011;3732;48.052;7.800;2022-08-21T06:46:38;3.03;;;2.10;;
7381;SDS011;3732;48.052;7.800;2022-08-21T06:49:09;3.70;;;2.10;;
7381;SDS011;3732;48.052;7.800;2022-08-21T06:54:33;2.47;;;1.93;;
7381;SDS011;3732;48.052;7.800;2022-08-21T06:57:00;3.40;;;1.93;;
7381;SDS011;3732;48.052;7.800;2022-08-21T06:59:27;3.97;;;2.10;;
7381;SDS011;3732;48.052;7.800;2022-08-21T07:01:55;4.87;;;1.93;;
7381;SDS011;3732;48.052;7.800;2022-08-21T07:04:23;4.97;;;2.20;;
7381;SDS011;3732;48.052;7.800;2022-08-21T07:06:50;6.00;;;1.80;;
7381;SDS011;3732;48.052;7.800;2022-08-21T07:09:18;1.97;;;1.77;;
7381;SDS011;3732;48.052;7.800;2022-08-21T07:11:45;3.23;;;2.13;;
7381;SDS011;3732;48.052;7.800;2022-08-21T07:14:15;3.13;;;1.80;;
7381;SDS011;3732;48.052;7.800;2022-08-21T07:16:42;4.10;;;1.90;;
7381;SDS011;3732;48.052;7.800;2022-08-21T07:19:10;4.13;;;1.90;;
7381;SDS011;3732;48.052;7.800;2022-08-21T07:21:39;3.77;;;2.00;;
7381;SDS011;3732;48.052;7.800;2022-08-21T07:24:07;3.13;;;1.77;;
7381;SDS011;3732;48.052;7.800;2022-08-21T07:26:34;2.90;;;2.27;;
7381;SDS011;3732;48.052;7.800;2022-08-21T07:29:02;4.33;;;1.97;;
7381;SDS011;3732;48.052;7.800;2022-08-21T07:31:30;2.43;;;1.63;;
7381;SDS011;3732;48.052;7.800;2022-08-21T07:33:57;2.80;;;1.70;;
7381;SDS011;3732;48.052;7.800;2022-08-21T07:36:24;2.43;;;1.97;;
7381;SDS011;3732;48.052;7.800;2022-08-21T07:38:53;2.47;;;1.80;;
7381;SDS011;3732;48.052;7.800;2022-08-21T07:41:20;3.00;;;1.90;;
7381;SDS011;3732;48.052;7.800;2022-08-21T07:43:48;5.37;;;2.17;;
7381;SDS011;3732;48.052;7.800;2022-08-21T07:46:16;1.70;;;1.60;;
7381;SDS011;3732;48.052;7.800;2022-08-21T07:48:43;2.60;;;1.83;;
7381;SDS011;3732;48.052;7.800;2022-08-21T07:51:11;3.90;;;1.83;;
7381;SDS011;3732;48.052;7.800;2022-08-21T07:53:39;4.07;;;2.07;;
7381;SDS011;3732;48.052;7.800;2022-08-21T07:56:08;1.73;;;1.50;;
7381;SDS011;3732;48.052;7.800;2022-08-21T07:58:36;4.30;;;1.90;;
7381;SDS011;3732;48.052;7.800;2022-08-21T08:01:04;3.83;;;2.37;;
7381;SDS011;3732;48.052;7.800;2022-08-21T08:03:32;3.37;;;1.70;;
7381;SDS011;3732;48.052;7.800;2022-08-21T08:05:59;3.97;;;2.23;;
7381;SDS011;3732;48.052;7.800;2022-08-21T08:08:29;1.97;;;1.37;;
7381;SDS011;3732;48.052;7.800;2022-08-21T08:10:56;3.97;;;1.80;;
7381;SDS011;3732;48.052;7.800;2022-08-21T08:13:26;3.53;;;1.90;;
7381;SDS011;3732;48.052;7.800;2022-08-21T08:15:53;2.07;;;1.70;;
7381;SDS011;3732;48.052;7.800;2022-08-21T08:18:20;2.27;;;1.77;;
7381;SDS011;3732;48.052;7.800;2022-08-21T08:20:48;2.83;;;2.00;;
7381;SDS011;3732;48.052;7.800;2022-08-21T08:23:15;3.50;;;1.90;;
7381;SDS011;3732;48.052;7.800;2022-08-21T08:25:42;4.07;;;1.80;;
7381;SDS011;3732;48.052;7.800;2022-08-21T08:28:09;2.17;;;1.63;;
7381;SDS011;3732;48.052;7.800;2022-08-21T08:30:38;2.50;;;1.60;;
7381;SDS011;3732;48.052;7.800;2022-08-21T08:33:05;3.90;;;1.80;;
7381;SDS011;3732;48.052;7.800;2022-08-21T08:35:32;3.83;;;1.77;;
7381;SDS011;3732;48.052;7.800;2022-08-21T08:38:00;4.83;;;1.90;;
7381;SDS011;3732;48.052;7.800;2022-08-21T08:40:28;6.93;;;2.70;;
7381;SDS011;3732;48.052;7.800;2022-08-21T08:42:58;5.40;;;2.07;;
7381;SDS011;3732;48.052;7.800;2022-08-21T08:45:26;4.23;;;2.20;;
7381;SDS011;3732;48.052;7.800;2022-08-21T08:47:55;5.77;;;2.00;;
7381;SDS011;3732;48.052;7.800;2022-08-21T08:50:26;3.30;;;1.90;;
7381;SDS011;3732;48.052;7.800;2022-08-21T08:53:00;4.43;;;2.10;;
7381;SDS011;3732;48.052;7.800;2022-08-21T08:55:32;5.17;;;1.83;;
7381;SDS011;3732;48.052;7.800;2022-08-21T08:58:00;3.57;;;1.80;;
7381;SDS011;3732;48.052;7.800;2022-08-21T09:00:28;2.97;;;1.93;;
7381;SDS011;3732;48.052;7.800;2022-08-21T09:03:00;5.03;;;2.07;;
7381;SDS011;3732;48.052;7.800;2022-08-21T09:05:29;4.97;;;1.90;;
7381;SDS011;3732;48.052;7.800;2022-08-21T09:08:15;3.57;;;2.10;;
7381;SDS011;3732;48.052;7.800;2022-08-21T09:10:48;4.33;;;2.07;;
7381;SDS011;3732;48.052;7.800;2022-08-21T09:13:24;4.60;;;2.23;;
7381;SDS011;3732;48.052;7.800;2022-08-21T09:15:54;2.13;;;1.93;;
7381;SDS011;3732;48.052;7.800;2022-08-21T09:18:29;3.37;;;2.17;;
7381;SDS011;3732;48.052;7.800;2022-08-21T09:21:05;5.90;;;2.17;;
7381;SDS011;3732;48.052;7.800;2022-08-21T09:23:36;3.40;;;1.80;;
7381;SDS011;3732;48.052;7.800;2022-08-21T09:26:13;4.63;;;2.57;;
7381;SDS011;3732;48.052;7.800;2022-08-21T09:28:41;6.03;;;2.83;;
7381;SDS011;3732;48.052;7.800;2022-08-21T09:31:08;4.87;;;2.40;;
7381;SDS011;3732;48.052;7.800;2022-08-21T09:33:40;7.27;;;2.70;;
7381;SDS011;3732;48.052;7.800;2022-08-21T09:36:07;3.73;;;2.10;;
7381;SDS011;3732;48.052;7.800;2022-08-21T09:38:35;4.93;;;2.50;;
7381;SDS011;3732;48.052;7.800;2022-08-21T09:41:03;6.53;;;2.90;;
7381;SDS011;3732;48.052;7.800;2022-08-21T09:43:31;6.53;;;2.67;;
7381;SDS011;3732;48.052;7.800;2022-08-21T09:46:03;4.83;;;2.20;;
7381;SDS011;3732;48.052;7.800;2022-08-21T09:48:37;6.80;;;2.67;;
7381;SDS011;3732;48.052;7.800;2022-08-21T09:51:07;3.77;;;2.30;;
7381;SDS011;3732;48.052;7.800;2022-08-21T09:53:37;3.97;;;2.00;;
7381;SDS011;3732;48.052;7.800;2022-08-21T09:56:16;4.50;;;2.37;;
7381;SDS011;3732;48.052;7.800;2022-08-21T09:59:11;4.43;;;2.50;;
7381;SDS011;3732;48.052;7.800;2022-08-21T10:01:42;5.03;;;2.40;;
7381;SDS011;3732;48.052;7.800;2022-08-21T10:04:09;4.67;;;2.30;;
7381;SDS011;3732;48.052;7.800;2022-08-21T10:06:38;4.83;;;2.27;;
7381;SDS011;3732;48.052;7.800;2022-08-21T10:09:07;5.50;;;2.10;;
7381;SDS011;3732;48.052;7.800;2022-08-21T10:11:35;3.87;;;2.60;;
7381;SDS011;3732;48.052;7.800;2022-08-21T10:14:06;4.33;;;1.97;;
7381;SDS011;3732;48.052;7.800;2022-08-21T10:16:39;3.73;;;1.87;;
7381;SDS011;3732;48.052;7.800;2022-08-21T10:19:15;4.10;;;2.43;;
7381;SDS011;3732;48.052;7.800;2022-08-21T10:21:57;2.77;;;1.80;;
7381;SDS011;3732;48.052;7.800;2022-08-21T10:24:27;4.27;;;1.93;;
7381;SDS011;3732;48.052;7.800;2022-08-21T10:26:56;4.47;;;2.03;;
7381;SDS011;3732;48.052;7.800;2022-08-21T10:29:33;4.03;;;2.10;;
7381;SDS011;3732;48.052;7.800;2022-08-21T10:32:03;3.13;;;2.20;;
7381;SDS011;3732;48.052;7.800;2022-08-21T10:34:35;5.23;;;2.10;;
7381;SDS011;3732;48.052;7.800;2022-08-21T10:37:13;4.60;;;2.10;;
7381;SDS011;3732;48.052;7.800;2022-08-21T10:39:46;5.97;;;2.37;;
7381;SDS011;3732;48.052;7.800;2022-08-21T10:42:20;5.07;;;2.30;;
7381;SDS011;3732;48.052;7.800;2022-08-21T10:44:51;3.03;;;1.90;;
7381;SDS011;3732;48.052;7.800;2022-08-21T10:47:24;4.53;;;2.13;;
7381;SDS011;3732;48.052;7.800;2022-08-21T10:49:56;3.70;;;2.20;;
7381;SDS011;3732;48.052;7.800;2022-08-21T10:52:30;3.37;;;1.87;;
7381;SDS011;3732;48.052;7.800;2022-08-21T10:55:02;3.23;;;1.80;;
7381;SDS011;3732;48.052;7.800;2022-08-21T10:57:33;3.13;;;1.83;;
7381;SDS011;3732;48.052;7.800;2022-08-21T11:00:04;2.70;;;1.50;;
7381;SDS011;3732;48.052;7.800;2022-08-21T11:02:35;2.23;;;1.60;;
7381;SDS011;3732;48.052;7.800;2022-08-21T11:05:05;3.20;;;1.73;;
7381;SDS011;3732;48.052;7.800;2022-08-21T11:07:36;2.17;;;1.83;;
7381;SDS011;3732;48.052;7.800;2022-08-21T11:10:06;3.67;;;2.10;;
7381;SDS011;3732;48.052;7.800;2022-08-21T11:12:38;5.47;;;1.70;;
7381;SDS011;3732;48.052;7.800;2022-08-21T11:15:11;2.17;;;1.50;;
7381;SDS011;3732;48.052;7.800;2022-08-21T11:17:44;3.10;;;1.40;;
7381;SDS011;3732;48.052;7.800;2022-08-21T11:20:15;2.53;;;1.80;;
7381;SDS011;3732;48.052;7.800;2022-08-21T11:22:49;2.03;;;1.40;;
7381;SDS011;3732;48.052;7.800;2022-08-21T11:25:22;3.53;;;1.63;;
7381;SDS011;3732;48.052;7.800;2022-08-21T11:27:50;1.40;;;1.30;;
7381;SDS011;3732;48.052;7.800;2022-08-21T11:30:19;3.30;;;1.50;;
7381;SDS011;3732;48.052;7.800;2022-08-21T11:32:53;1.23;;;0.93;;
7381;SDS011;3732;48.052;7.800;2022-08-21T11:35:26;3.17;;;1.30;;
7381;SDS011;3732;48.052;7.800;2022-08-21T11:37:58;5.10;;;1.60;;
7381;SDS011;3732;48.052;7.800;2022-08-21T11:40:40;2.30;;;1.20;;
7381;SDS011;3732;48.052;7.800;2022-08-21T11:43:12;3.30;;;1.70;;
7381;SDS011;3732;48.052;7.800;2022-08-21T11:45:43;3.87;;;1.60;;
7381;SDS011;3732;48.052;7.800;2022-08-21T11:48:13;2.33;;;1.47;;
7381;SDS011;3732;48.052;7.800;2022-08-21T11:50:42;3.77;;;1.50;;
7381;SDS011;3732;48.052;7.800;2022-08-21T11:53:13;3.67;;;1.67;;
7381;SDS011;3732;48.052;7.800;2022-08-21T11:55:43;4.03;;;1.70;;
7381;SDS011;3732;48.052;7.800;2022-08-21T11:58:14;2.60;;;1.57;;
7381;SDS011;3732;48.052;7.800;2022-08-21T12:00:43;2.60;;;1.60;;
7381;SDS011;3732;48.052;7.800;2022-08-21T12:03:12;2.57;;;1.60;;
7381;SDS011;3732;48.052;7.800;2022-08-21T12:05:41;4.87;;;1.57;;
7381;SDS011;3732;48.052;7.800;2022-08-21T12:08:11;3.03;;;1.73;;
7381;SDS011;3732;48.052;7.800;2022-08-21T12:10:41;3.43;;;1.80;;
7381;SDS011;3732;48.052;7.800;2022-08-21T12:13:10;2.87;;;1.70;;
7381;SDS011;3732;48.052;7.800;2022-08-21T12:15:38;3.23;;;1.50;;
7381;SDS011;3732;48.052;7.800;2022-08-21T12:18:07;2.13;;;1.90;;
7381;SDS011;3732;48.052;7.800;2022-08-21T12:20:57;3.50;;;1.70;;
7381;SDS011;3732;48.052;7.800;2022-08-21T12:23:26;2.13;;;1.80;;
7381;SDS011;3732;48.052;7.800;2022-08-21T12:26:03;4.07;;;1.80;;
7381;SDS011;3732;48.052;7.800;2022-08-21T12:28:31;2.63;;;1.50;;
7381;SDS011;3732;48.052;7.800;2022-08-21T12:30:59;1.80;;;1.67;;
7381;SDS011;3732;48.052;7.800;2022-08-21T12:33:27;6.40;;;1.83;;
7381;SDS011;3732;48.052;7.800;2022-08-21T12:36:01;3.23;;;1.83;;
7381;SDS011;3732;48.052;7.800;2022-08-21T12:38:29;2.50;;;1.50;;
7381;SDS011;3732;48.052;7.800;2022-08-21T12:40:59;3.80;;;1.60;;
7381;SDS011;3732;48.052;7.800;2022-08-21T12:43:29;3.37;;;1.70;;
7381;SDS011;3732;48.052;7.800;2022-08-21T12:45:58;2.43;;;1.70;;
7381;SDS011;3732;48.052;7.800;2022-08-21T12:48:29;3.37;;;1.70;;
7381;SDS011;3732;48.052;7.800;2022-08-21T12:50:58;2.37;;;1.93;;
7381;SDS011;3732;48.052;7.800;2022-08-21T12:53:37;3.30;;;1.80;;
7381;SDS011;3732;48.052;7.800;2022-08-21T12:56:09;3.67;;;1.47;;
7381;SDS011;3732;48.052;7.800;2022-08-21T12:58:39;4.20;;;1.70;;
7381;SDS011;3732;48.052;7.800;2022-08-21T13:01:13;3.67;;;1.80;;
7381;SDS011;3732;48.052;7.800;2022-08-21T13:03:43;4.03;;;2.43;;
7381;SDS011;3732;48.052;7.800;2022-08-21T13:06:14;3.60;;;1.73;;
7381;SDS011;3732;48.052;7.800;2022-08-21T13:08:42;2.73;;;1.80;;
7381;SDS011;3732;48.052;7.800;2022-08-21T13:11:10;2.83;;;1.60;;
7381;SDS011;3732;48.052;7.800;2022-08-21T13:13:41;4.90;;;2.43;;
7381;SDS011;3732;48.052;7.800;2022-08-21T13:16:08;5.40;;;2.10;;
7381;SDS011;3732;48.052;7.800;2022-08-21T13:18:52;3.90;;;2.00;;
7381;SDS011;3732;48.052;7.800;2022-08-21T13:21:20;3.00;;;1.70;;
7381;SDS011;3732;48.052;7.800;2022-08-21T13:23:47;3.13;;;1.87;;
7381;SDS011;3732;48.052;7.800;2022-08-21T13:26:15;2.90;;;1.60;;
7381;SDS011;3732;48.052;7.800;2022-08-21T13:28:44;3.77;;;1.43;;
7381;SDS011;3732;48.052;7.800;2022-08-21T13:31:15;2.40;;;1.80;;
7381;SDS011;3732;48.052;7.800;2022-08-21T13:33:43;1.90;;;1.50;;
7381;SDS011;3732;48.052;7.800;2022-08-21T13:36:13;3.20;;;1.80;;
7381;SDS011;3732;48.052;7.800;2022-08-21T13:38:42;2.13;;;1.43;;
7381;SDS011;3732;48.052;7.800;2022-08-21T13:41:20;4.00;;;2.07;;
7381;SDS011;3732;48.052;7.800;2022-08-21T13:43:50;2.43;;;1.70;;
7381;SDS011;3732;48.052;7.800;2022-08-21T13:46:18;3.83;;;1.87;;
7381;SDS011;3732;48.052;7.800;2022-08-21T13:48:47;2.23;;;1.70;;
7381;SDS011;3732;48.052;7.800;2022-08-21T13:51:15;2.60;;;2.00;;
7381;SDS011;3732;48.052;7.800;2022-08-21T13:53:44;5.20;;;1.70;;
7381;SDS011;3732;48.052;7.800;2022-08-21T13:56:26;2.33;;;1.87;;
7381;SDS011;3732;48.052;7.800;2022-08-21T13:58:55;2.30;;;1.70;;
7381;SDS011;3732;48.052;7.800;2022-08-21T14:01:25;1.87;;;1.60;;
7381;SDS011;3732;48.052;7.800;2022-08-21T14:03:53;1.83;;;1.63;;
7381;SDS011;3732;48.052;7.800;2022-08-21T14:06:23;2.57;;;1.63;;
7381;SDS011;3732;48.052;7.800;2022-08-21T14:08:52;3.57;;;1.47;;
7381;SDS011;3732;48.052;7.800;2022-08-21T14:11:20;2.60;;;1.70;;
7381;SDS011;3732;48.052;7.800;2022-08-21T14:13:49;4.63;;;1.80;;
7381;SDS011;3732;48.052;7.800;2022-08-21T14:16:20;3.13;;;1.67;;
7381;SDS011;3732;48.052;7.800;2022-08-21T14:19:07;2.40;;;1.50;;
7381;SDS011;3732;48.052;7.800;2022-08-21T14:21:36;1.87;;;1.70;;
7381;SDS011;3732;48.052;7.800;2022-08-21T14:24:05;5.13;;;1.80;;
7381;SDS011;3732;48.052;7.800;2022-08-21T14:26:34;1.63;;;1.50;;
7381;SDS011;3732;48.052;7.800;2022-08-21T14:29:07;2.40;;;1.40;;
7381;SDS011;3732;48.052;7.800;2022-08-21T14:31:42;3.10;;;1.60;;
7381;SDS011;3732;48.052;7.800;2022-08-21T14:34:11;2.70;;;1.50;;
7381;SDS011;3732;48.052;7.800;2022-08-21T14:36:41;1.70;;;1.50;;
7381;SDS011;3732;48.052;7.800;2022-08-21T14:39:09;4.07;;;1.70;;
7381;SDS011;3732;48.052;7.800;2022-08-21T14:41:36;2.70;;;1.43;;
7381;SDS011;3732;48.052;7.800;2022-08-21T14:44:05;1.90;;;1.50;;
7381;SDS011;3732;48.052;7.800;2022-08-21T14:46:32;2.43;;;1.80;;
7381;SDS011;3732;48.052;7.800;2022-08-21T14:49:02;2.30;;;1.33;;
7381;SDS011;3732;48.052;7.800;2022-08-21T14:51:29;2.27;;;1.90;;
7381;SDS011;3732;48.052;7.800;2022-08-21T14:53:57;2.10;;;1.53;;
7381;SDS011;3732;48.052;7.800;2022-08-21T14:56:24;1.80;;;1.40;;
7381;SDS011;3732;48.052;7.800;2022-08-21T14:58:51;1.40;;;1.30;;
7381;SDS011;3732;48.052;7.800;2022-08-21T15:01:21;4.67;;;1.70;;
7381;SDS011;3732;48.052;7.800;2022-08-21T15:03:48;2.50;;;1.57;;
7381;SDS011;3732;48.052;7.800;2022-08-21T15:06:17;2.13;;;1.80;;
7381;SDS011;3732;48.052;7.800;2022-08-21T15:08:46;1.90;;;1.30;;
7381;SDS011;3732;48.052;7.800;2022-08-21T15:11:15;1.97;;;1.47;;
7381;SDS011;3732;48.052;7.800;2022-08-21T15:13:42;2.37;;;1.50;;
7381;SDS011;3732;48.052;7.800;2022-08-21T15:16:10;2.23;;;1.37;;
7381;SDS011;3732;48.052;7.800;2022-08-21T15:18:38;2.33;;;1.40;;
7381;SDS011;3732;48.052;7.800;2022-08-21T15:21:05;2.83;;;1.40;;
7381;SDS011;3732;48.052;7.800;2022-08-21T15:23:34;1.53;;;1.10;;
7381;SDS011;3732;48.052;7.800;2022-08-21T15:26:02;2.27;;;1.30;;
7381;SDS011;3732;48.052;7.800;2022-08-21T15:28:29;3.20;;;1.50;;